sensor_id;sensor_type;location;lat;lon;timestamp;P1;durP1;ratioP1;P2;durP2;ratioP2
14153;SDS011;7157;53.144;7.570;2023-07-13T00:08:39;5.85;;;1.90;;
14153;SDS011;7157;53.144;7.570;2023-07-13T00:18:43;6.45;;;1.98;;
14153;SDS011;7157;53.144;7.570;2023-07-13T00:28:47;4.60;;;2.22;;
14153;SDS011;7157;53.144;7.570;2023-07-13T00:38:51;6.47;;;2.15;;
14153;SDS011;7157;53.144;7.570;2023-07-13T00:48:54;6.55;;;1.77;;
14153;SDS011;7157;53.144;7.570;2023-07-13T00:59:03;7.10;;;1.80;;
14153;SDS011;7157;53.144;7.570;2023-07-13T01:09:09;7.65;;;1.85;;
14153;SDS011;7157;53.144;7.570;2023-07-13T01:19:18;11.35;;;1.80;;
14153;SDS011;7157;53.144;7.570;2023-07-13T01:29:40;5.97;;;1.67;;
14153;SDS011;7157;53.144;7.570;2023-07-13T01:39:44;6.97;;;1.75;;
14153;SDS011;7157;53.144;7.570;2023-07-13T01:49:49;8.77;;;2.10;;
14153;SDS011;7157;53.144;7.570;2023-07-13T01:59:53;9.32;;;2.75;;
14153;SDS011;7157;53.144;7.570;2023-07-13T02:09:57;5.47;;;1.48;;
14153;SDS011;7157;53.144;7.570;2023-07-13T02:20:00;9.93;;;1.98;;
14153;SDS011;7157;53.144;7.570;2023-07-13T02:30:06;8.98;;;1.95;;
14153;SDS011;7157;53.144;7.570;2023-07-13T02:40:10;5.60;;;1.50;;
14153;SDS011;7157;53.144;7.570;2023-07-13T02:50:14;7.35;;;2.00;;
14153;SDS011;7157;53.144;7.570;2023-07-13T03:00:17;17.60;;;2.20;;
14153;SDS011;7157;53.144;7.570;2023-07-13T03:10:21;12.05;;;2.00;;
14153;SDS011;7157;53.144;7.570;2023-07-13T03:20:25;8.18;;;2.42;;
14153;SDS011;7157;53.144;7.570;2023-07-13T03:30:30;11.55;;;1.80;;
14153;SDS011;7157;53.144;7.570;2023-07-13T03:40:33;10.50;;;2.15;;
14153;SDS011;7157;53.144;7.570;2023-07-13T03:50:37;12.02;;;2.25;;
14153;SDS011;7157;53.144;7.570;2023-07-13T04:00:39;12.43;;;2.05;;
14153;SDS011;7157;53.144;7.570;2023-07-13T04:10:44;13.82;;;2.30;;
14153;SDS011;7157;53.144;7.570;2023-07-13T04:20:47;10.20;;;2.20;;
14153;SDS011;7157;53.144;7.570;2023-07-13T04:30:52;9.25;;;2.10;;
14153;SDS011;7157;53.144;7.570;2023-07-13T04:40:55;18.38;;;2.42;;
14153;SDS011;7157;53.144;7.570;2023-07-13T04:51:00;8.73;;;1.90;;
14153;SDS011;7157;53.144;7.570;2023-07-13T05:01:04;10.65;;;2.58;;
14153;SDS011;7157;53.144;7.570;2023-07-13T05:11:09;9.68;;;2.10;;
14153;SDS011;7157;53.144;7.570;2023-07-13T05:21:13;17.63;;;2.28;;
14153;SDS011;7157;53.144;7.570;2023-07-13T05:31:17;15.60;;;2.30;;
14153;SDS011;7157;53.144;7.570;2023-07-13T05:41:21;8.88;;;2.45;;
14153;SDS011;7157;53.144;7.570;2023-07-13T05:51:25;10.05;;;2.30;;
14153;SDS011;7157;53.144;7.570;2023-07-13T06:01:29;13.45;;;2.42;;
14153;SDS011;7157;53.144;7.570;2023-07-13T06:11:34;9.73;;;2.70;;
14153;SDS011;7157;53.144;7.570;2023-07-13T06:21:37;15.15;;;2.53;;
14153;SDS011;7157;53.144;7.570;2023-07-13T06:31:41;8.38;;;2.60;;
14153;SDS011;7157;53.144;7.570;2023-07-13T06:41:44;9.07;;;2.53;;
14153;SDS011;7157;53.144;7.570;2023-07-13T06:51:48;9.68;;;2.38;;
14153;SDS011;7157;53.144;7.570;2023-07-13T07:01:51;11.68;;;2.65;;
14153;SDS011;7157;53.144;7.570;2023-07-13T07:11:56;11.48;;;2.13;;
14153;SDS011;7157;53.144;7.570;2023-07-13T07:22:04;12.85;;;2.45;;
14153;SDS011;7157;53.144;7.570;2023-07-13T07:32:09;8.57;;;2.10;;
14153;SDS011;7157;53.144;7.570;2023-07-13T07:42:32;9.50;;;2.63;;
14153;SDS011;7157;53.144;7.570;2023-07-13T07:52:36;9.32;;;2.10;;
14153;SDS011;7157;53.144;7.570;2023-07-13T08:02:39;4.85;;;1.90;;
14153;SDS011;7157;53.144;7.570;2023-07-13T08:13:03;7.93;;;2.13;;
14153;SDS011;7157;53.144;7.570;2023-07-13T08:23:12;7.97;;;1.88;;
14153;SDS011;7157;53.144;7.570;2023-07-13T08:33:18;7.63;;;1.63;;
14153;SDS011;7157;53.144;7.570;2023-07-13T08:43:23;7.85;;;1.73;;
14153;SDS011;7157;53.144;7.570;2023-07-13T08:53:30;6.50;;;1.90;;
14153;SDS011;7157;53.144;7.570;2023-07-13T09:03:40;9.30;;;1.95;;
14153;SDS011;7157;53.144;7.570;2023-07-13T09:13:49;5.85;;;1.75;;
14153;SDS011;7157;53.144;7.570;2023-07-13T09:24:03;6.03;;;1.67;;
14153;SDS011;7157;53.144;7.570;2023-07-13T09:34:25;6.50;;;2.25;;
14153;SDS011;7157;53.144;7.570;2023-07-13T09:44:30;10.55;;;1.90;;
14153;SDS011;7157;53.144;7.570;2023-07-13T09:54:38;10.05;;;2.80;;
14153;SDS011;7157;53.144;7.570;2023-07-13T10:04:41;8.63;;;2.97;;
14153;SDS011;7157;53.144;7.570;2023-07-13T10:14:46;7.30;;;3.00;;
14153;SDS011;7157;53.144;7.570;2023-07-13T10:24:50;10.55;;;2.97;;
14153;SDS011;7157;53.144;7.570;2023-07-13T10:34:55;5.28;;;2.10;;
14153;SDS011;7157;53.144;7.570;2023-07-13T10:45:02;7.50;;;1.70;;
14153;SDS011;7157;53.144;7.570;2023-07-13T10:55:33;3.15;;;1.20;;
14153;SDS011;7157;53.144;7.570;2023-07-13T11:05:42;4.72;;;1.40;;
14153;SDS011;7157;53.144;7.570;2023-07-13T11:15:48;3.92;;;1.65;;
14153;SDS011;7157;53.144;7.570;2023-07-13T11:25:51;5.78;;;1.77;;
14153;SDS011;7157;53.144;7.570;2023-07-13T11:35:59;3.20;;;1.48;;
14153;SDS011;7157;53.144;7.570;2023-07-13T11:46:12;6.45;;;2.70;;
14153;SDS011;7157;53.144;7.570;2023-07-13T11:56:17;5.05;;;1.60;;
14153;SDS011;7157;53.144;7.570;2023-07-13T12:06:23;4.07;;;1.35;;
14153;SDS011;7157;53.144;7.570;2023-07-13T12:16:32;4.13;;;1.25;;
14153;SDS011;7157;53.144;7.570;2023-07-13T12:26:35;5.40;;;1.50;;
14153;SDS011;7157;53.144;7.570;2023-07-13T12:36:41;4.63;;;1.33;;
14153;SDS011;7157;53.144;7.570;2023-07-13T12:46:53;2.65;;;1.20;;
14153;SDS011;7157;53.144;7.570;2023-07-13T12:57:00;4.45;;;1.30;;
14153;SDS011;7157;53.144;7.570;2023-07-13T13:07:05;4.63;;;1.27;;
14153;SDS011;7157;53.144;7.570;2023-07-13T13:17:18;4.45;;;1.30;;
14153;SDS011;7157;53.144;7.570;2023-07-13T13:27:22;3.95;;;1.30;;
14153;SDS011;7157;53.144;7.570;2023-07-13T13:37:27;4.38;;;1.45;;
14153;SDS011;7157;53.144;7.570;2023-07-13T13:47:30;5.85;;;1.63;;
14153;SDS011;7157;53.144;7.570;2023-07-13T13:57:37;9.00;;;2.22;;
14153;SDS011;7157;53.144;7.570;2023-07-13T14:07:40;6.60;;;1.90;;
14153;SDS011;7157;53.144;7.570;2023-07-13T14:17:45;6.60;;;1.60;;
14153;SDS011;7157;53.144;7.570;2023-07-13T14:39:15;3.53;;;1.42;;
14153;SDS011;7157;53.144;7.570;2023-07-13T14:49:24;3.23;;;1.20;;
14153;SDS011;7157;53.144;7.570;2023-07-13T15:00:01;3.88;;;0.85;;
14153;SDS011;7157;53.144;7.570;2023-07-13T15:10:14;4.30;;;1.30;;
14153;SDS011;7157;53.144;7.570;2023-07-13T15:20:21;3.30;;;1.25;;
14153;SDS011;7157;53.144;7.570;2023-07-13T15:30:33;6.43;;;1.70;;
14153;SDS011;7157;53.144;7.570;2023-07-13T15:40:42;6.22;;;1.63;;
14153;SDS011;7157;53.144;7.570;2023-07-13T15:50:46;7.13;;;1.63;;
14153;SDS011;7157;53.144;7.570;2023-07-13T16:00:53;6.07;;;1.67;;
14153;SDS011;7157;53.144;7.570;2023-07-13T16:10:56;7.88;;;1.70;;
14153;SDS011;7157;53.144;7.570;2023-07-13T16:21:01;10.15;;;1.65;;
14153;SDS011;7157;53.144;7.570;2023-07-13T16:31:04;8.32;;;1.63;;
14153;SDS011;7157;53.144;7.570;2023-07-13T16:41:12;5.50;;;1.75;;
14153;SDS011;7157;53.144;7.570;2023-07-13T16:51:16;10.38;;;2.03;;
14153;SDS011;7157;53.144;7.570;2023-07-13T17:01:20;9.18;;;2.13;;
14153;SDS011;7157;53.144;7.570;2023-07-13T17:11:24;4.15;;;1.50;;
14153;SDS011;7157;53.144;7.570;2023-07-13T17:21:29;4.97;;;1.80;;
14153;SDS011;7157;53.144;7.570;2023-07-13T17:31:33;8.57;;;1.40;;
14153;SDS011;7157;53.144;7.570;2023-07-13T17:41:37;3.40;;;1.58;;
14153;SDS011;7157;53.144;7.570;2023-07-13T17:51:45;5.38;;;1.45;;
14153;SDS011;7157;53.144;7.570;2023-07-13T18:01:50;8.48;;;2.15;;
14153;SDS011;7157;53.144;7.570;2023-07-13T18:11:54;12.93;;;2.22;;
14153;SDS011;7157;53.144;7.570;2023-07-13T18:22:01;8.43;;;1.85;;
14153;SDS011;7157;53.144;7.570;2023-07-13T18:43:28;5.82;;;1.30;;
14153;SDS011;7157;53.144;7.570;2023-07-13T18:53:31;8.43;;;1.92;;
14153;SDS011;7157;53.144;7.570;2023-07-13T19:03:35;5.05;;;1.30;;
14153;SDS011;7157;53.144;7.570;2023-07-13T19:13:38;5.85;;;1.50;;
14153;SDS011;7157;53.144;7.570;2023-07-13T19:23:44;8.07;;;1.77;;
14153;SDS011;7157;53.144;7.570;2023-07-13T19:33:49;6.03;;;1.80;;
14153;SDS011;7157;53.144;7.570;2023-07-13T19:43:53;4.95;;;1.42;;
14153;SDS011;7157;53.144;7.570;2023-07-13T19:53:58;9.30;;;1.88;;
14153;SDS011;7157;53.144;7.570;2023-07-13T20:04:03;4.22;;;1.80;;
14153;SDS011;7157;53.144;7.570;2023-07-13T20:14:11;8.30;;;2.15;;
14153;SDS011;7157;53.144;7.570;2023-07-13T20:24:20;6.95;;;2.53;;
14153;SDS011;7157;53.144;7.570;2023-07-13T20:34:24;9.18;;;2.35;;
14153;SDS011;7157;53.144;7.570;2023-07-13T20:44:31;6.30;;;2.10;;
14153;SDS011;7157;53.144;7.570;2023-07-13T20:54:34;5.60;;;1.98;;
14153;SDS011;7157;53.144;7.570;2023-07-13T21:04:39;6.15;;;2.13;;
14153;SDS011;7157;53.144;7.570;2023-07-13T21:14:43;4.55;;;2.15;;
14153;SDS011;7157;53.144;7.570;2023-07-13T21:24:48;11.65;;;2.67;;
14153;SDS011;7157;53.144;7.570;2023-07-13T21:34:51;8.25;;;2.90;;
14153;SDS011;7157;53.144;7.570;2023-07-13T21:44:55;8.95;;;2.45;;
14153;SDS011;7157;53.144;7.570;2023-07-13T21:55:00;7.93;;;2.30;;
14153;SDS011;7157;53.144;7.570;2023-07-13T22:15:16;6.00;;;2.63;;
14153;SDS011;7157;53.144;7.570;2023-07-13T22:25:21;6.22;;;2.70;;
14153;SDS011;7157;53.144;7.570;2023-07-13T22:35:24;5.15;;;2.65;;
14153;SDS011;7157;53.144;7.570;2023-07-13T22:45:29;9.30;;;3.00;;
14153;SDS011;7157;53.144;7.570;2023-07-13T22:55:32;6.88;;;2.78;;
14153;SDS011;7157;53.144;7.570;2023-07-13T23:05:38;8.68;;;2.72;;
14153;SDS011;7157;53.144;7.570;2023-07-13T23:15:41;6.18;;;2.78;;
14153;SDS011;7157;53.144;7.570;2023-07-13T23:25:49;5.03;;;2.53;;
14153;SDS011;7157;53.144;7.570;2023-07-13T23:35:53;6.38;;;2.45;;
14153;SDS011;7157;53.144;7.570;2023-07-13T23:46:02;7.35;;;2.78;;
14153;SDS011;7157;53.144;7.570;2023-07-13T23:56:10;6.70;;;2.75;;
